Diamond, Illinois
Current Conditions -  °F | °C
As of 7:35 PM on Monday 24 Nov 2014 (Local Time) from KC09 Reporting Station
Overcast Overcast  
Wind Chill: 16°   Ceiling: 1700
Heat Index: 28°   Visibility: 10mi
Dew Point: 25°   Wind: 17mph
Humidity: 86%   Direction: 260°W
Pressure: 29.75"   Gusts: 28mph
Location:  41.2967°N, 88.2846°W
Report Text: KC09 250135Z AUTO 26015G24KT 10SM OVC017 M02/M04 A2975 RMK AO2 T10201040
Loading
Personal Weather Stations






























Interactive Weather Map New forecast layout! Learn more

10-Day Weather Forecast

Advertisements
Track Severe Weather on mobile